Time;durP1;ratioP1;P1;durP2;ratioP2;P2;SDS_P1;SDS_P2;PMS_P1;PMS_P2;Temp;Humidity;BMP_temperature;BMP_pressure;BME280_temperature;BME280_humidity;BME280_pressure;Samples;Min_cycle;Max_cycle;Signal;HPM_P1;HPM_P2
2022/04/05 00:00:47;;;;;;;;;;;;;;;;;;5132587;27;19974;-76
2022/04/05 00:03:13;;;;;;;;;;;;;;;;;;5111418;27;19978;-76
2022/04/05 00:05:38;;;;;;;;;;;;;;;;;;5136588;27;19950;-75
2022/04/05 00:08:04;;;;;;;;;;;;;;;;;;5136998;27;19944;-76
2022/04/05 00:10:29;;;;;;;;;;;;;;;;;;5135293;27;19922;-75
2022/04/05 00:12:55;;;;;;;;;;;;;;;;;;5118359;27;20006;-75
2022/04/05 00:15:20;;;;;;;;;;;;;;;;;;5136597;27;19916;-75
2022/04/05 00:17:46;;;;;;;;;;;;;;;;;;5136498;27;19964;-75
2022/04/05 00:20:11;;;;;;;;;;;;;;;;;;5136326;27;19919;-75
2022/04/05 00:22:37;;;;;;;;;;;;;;;;;;5131905;27;19916;-75
2022/04/05 00:25:03;;;;;;;;;;;;;;;;;;5136320;27;20367;-76
2022/04/05 00:27:28;;;;;;;;;;;;;;;;;;5122690;27;20366;-75
2022/04/05 00:29:55;;;;;;;;;;;;;;;;;;5129813;27;19930;-75
2022/04/05 00:32:20;;;;;;;;;;;;;;;;;;5115552;28;19927;-75
2022/04/05 00:34:46;;;;;;;;;;;;;;;;;;5117533;27;19919;-75
2022/04/05 00:37:11;;;;;;;;;;;;;;;;;;5131273;27;19995;-75
2022/04/05 00:39:37;;;;;;;;;;;;;;;;;;5131342;27;19954;-76
2022/04/05 00:42:02;;;;;;;;;;;;;;;;;;5135019;27;20018;-75
2022/04/05 00:44:28;;;;;;;;;;;;;;;;;;5135921;27;19916;-75
2022/04/05 00:46:54;;;;;;;;;;;;;;;;;;5135666;27;19915;-75
2022/04/05 00:49:32;;;;;;;;;;;;;;;;;;5135780;27;20287;-75
2022/04/05 00:51:58;;;;;;;;;;;;;;;;;;5135592;27;19927;-75
2022/04/05 00:54:25;;;;;;;;;;;;;;;;;;5135714;27;19915;-75
2022/04/05 00:56:52;;;;;;;;;;;;;;;;;;5135565;27;19921;-75
2022/04/05 00:59:18;;;;;;;;;;;;;;;;;;5133560;27;19963;-75
2022/04/05 01:01:44;;;;;;;;;;;;;;;;;;5132607;27;20294;-76
2022/04/05 01:04:11;;;;;;;;;;;;;;;;;;5114119;27;19919;-75
2022/04/05 01:06:40;;;;;;;;;;;;;;;;;;5132323;27;19926;-75
2022/04/05 01:09:08;;;;;;;;;;;;;;;;;;5135032;27;19925;-76
2022/04/05 01:11:33;;;;;;;;;;;;;;;;;;5133845;27;19915;-76
2022/04/05 01:13:59;;;;;;;;;;;;;;;;;;5117279;27;20014;-76
2022/04/05 01:16:24;;;;;;;;;;;;;;;;;;5116781;27;20325;-76
2022/04/05 01:18:50;;;;;;;;;;;;;;;;;;5124075;27;20356;-75
2022/04/05 01:21:16;;;;;;;;;;;;;;;;;;5114573;28;20319;-75
2022/04/05 01:24:00;;;;;;;;;;;;;;;;;;5126062;27;19916;-75
2022/04/05 01:26:25;;;;;;;;;;;;;;;;;;5135560;27;20259;-75
2022/04/05 01:28:51;;;;;;;;;;;;;;;;;;5135051;27;20005;-75
2022/04/05 01:31:16;;;;;;;;;;;;;;;;;;5134992;27;19996;-76
2022/04/05 01:33:42;;;;;;;;;;;;;;;;;;5134980;27;19916;-75
2022/04/05 01:36:11;;;;;;;;;;;;;;;;;;5135105;27;19915;-75
2022/04/05 01:38:37;;;;;;;;;;;;;;;;;;5135113;27;20298;-75
2022/04/05 01:41:02;;;;;;;;;;;;;;;;;;5134868;27;19916;-76
2022/04/05 01:43:28;;;;;;;;;;;;;;;;;;5134893;27;19915;-75
2022/04/05 01:45:53;;;;;;;;;;;;;;;;;;5134813;27;19922;-75
2022/04/05 01:48:18;;;;;;;;;;;;;;;;;;5134813;27;20278;-75
2022/04/05 01:50:44;;;;;;;;;;;;;;;;;;5134626;28;19962;-75
2022/04/05 01:53:09;;;;;;;;;;;;;;;;;;5134512;27;19916;-75
2022/04/05 01:55:35;;;;;;;;;;;;;;;;;;5123841;28;20427;-75
2022/04/05 01:58:01;;;;;;;;;;;;;;;;;;5134793;28;20390;-75
2022/04/05 02:00:26;;;;;;;;;;;;;;;;;;5134838;28;19977;-77
2022/04/05 02:02:51;;;;;;;;;;;;;;;;;;5134462;28;19919;-75
2022/04/05 02:05:17;;;;;;;;;;;;;;;;;;5134658;28;19921;-75
2022/04/05 02:07:42;;;;;;;;;;;;;;;;;;5134703;28;19919;-76
2022/04/05 02:10:08;;;;;;;;;;;;;;;;;;5133862;28;19922;-75
2022/04/05 02:12:34;;;;;;;;;;;;;;;;;;5134605;28;19915;-75
2022/04/05 02:14:59;;;;;;;;;;;;;;;;;;5134564;28;19916;-76
2022/04/05 02:17:24;;;;;;;;;;;;;;;;;;5134634;28;19938;-75
2022/04/05 02:19:50;;;;;;;;;;;;;;;;;;5134653;28;19915;-75
2022/04/05 02:22:16;;;;;;;;;;;;;;;;;;5134565;28;19945;-75
2022/04/05 02:24:41;;;;;;;;;;;;;;;;;;5133695;28;19915;-76
2022/04/05 02:27:08;;;;;;;;;;;;;;;;;;5134337;28;19929;-75
2022/04/05 02:29:34;;;;;;;;;;;;;;;;;;5129575;28;19915;-76
2022/04/05 02:32:00;;;;;;;;;;;;;;;;;;5134692;28;19920;-75
2022/04/05 02:34:25;;;;;;;;;;;;;;;;;;5116014;28;19922;-75
2022/04/05 02:36:51;;;;;;;;;;;;;;;;;;5134214;28;20428;-75
2022/04/05 02:39:16;;;;;;;;;;;;;;;;;;5134490;28;19920;-75
2022/04/05 02:41:41;;;;;;;;;;;;;;;;;;5134076;28;19981;-75
2022/04/05 02:44:07;;;;;;;;;;;;;;;;;;5134272;28;19938;-75
2022/04/05 02:46:33;;;;;;;;;;;;;;;;;;5134279;28;19919;-75
2022/04/05 02:48:58;;;;;;;;;;;;;;;;;;5134240;28;19915;-76
2022/04/05 02:51:24;;;;;;;;;;;;;;;;;;5134273;28;20385;-75
2022/04/05 02:53:49;;;;;;;;;;;;;;;;;;5134274;28;19976;-76
2022/04/05 02:56:15;;;;;;;;;;;;;;;;;;5134303;28;19912;-75
2022/04/05 02:58:41;;;;;;;;;;;;;;;;;;5134239;28;19922;-75
2022/04/05 03:01:06;;;;;;;;;;;;;;;;;;5128636;28;19969;-75
2022/04/05 03:03:32;;;;;;;;;;;;;;;;;;5134336;28;19915;-75
2022/04/05 03:05:58;;;;;;;;;;;;;;;;;;5136058;27;19965;-75
2022/04/05 03:08:23;;;;;;;;;;;;;;;;;;5136684;27;19919;-75
2022/04/05 03:10:49;;;;;;;;;;;;;;;;;;5137238;27;20045;-74
2022/04/05 03:13:15;;;;;;;;;;;;;;;;;;5136863;27;19926;-75
2022/04/05 03:15:40;;;;;;;;;;;;;;;;;;5136626;27;20324;-76
2022/04/05 03:18:06;;;;;;;;;;;;;;;;;;5137480;27;19926;-75
2022/04/05 03:20:32;;;;;;;;;;;;;;;;;;5137542;27;20008;-75
2022/04/05 03:22:59;;;;;;;;;;;;;;;;;;5137315;27;20007;-76
2022/04/05 03:25:25;;;;;;;;;;;;;;;;;;5137371;27;19929;-75
2022/04/05 03:27:50;;;;;;;;;;;;;;;;;;5137416;27;20010;-76
2022/04/05 03:30:16;;;;;;;;;;;;;;;;;;5137227;27;19923;-75
2022/04/05 03:32:42;;;;;;;;;;;;;;;;;;5137377;27;20018;-75
2022/04/05 03:35:08;;;;;;;;;;;;;;;;;;5137111;27;19919;-75
2022/04/05 03:37:33;;;;;;;;;;;;;;;;;;5137385;27;20325;-76
2022/04/05 03:39:59;;;;;;;;;;;;;;;;;;5137435;27;19916;-75
2022/04/05 03:42:25;;;;;;;;;;;;;;;;;;5129570;27;20017;-75
2022/04/05 03:44:50;;;;;;;;;;;;;;;;;;5136896;27;20365;-76
2022/04/05 03:47:16;;;;;;;;;;;;;;;;;;5136109;27;20286;-76
2022/04/05 03:49:41;;;;;;;;;;;;;;;;;;5129729;27;20047;-75
2022/04/05 03:52:07;;;;;;;;;;;;;;;;;;5135422;27;20014;-76
2022/04/05 03:54:33;;;;;;;;;;;;;;;;;;5130525;27;20401;-75
2022/04/05 03:56:58;;;;;;;;;;;;;;;;;;5112759;27;19934;-76
2022/04/05 03:59:23;;;;;;;;;;;;;;;;;;5135746;27;19920;-75
2022/04/05 04:01:49;;;;;;;;;;;;;;;;;;5134849;27;19919;-76
2022/04/05 04:04:14;;;;;;;;;;;;;;;;;;5135706;27;20375;-75
2022/04/05 04:06:40;;;;;;;;;;;;;;;;;;5135273;27;19916;-76
2022/04/05 04:09:05;;;;;;;;;;;;;;;;;;5136759;27;19923;-75
2022/04/05 04:11:31;;;;;;;;;;;;;;;;;;5135470;27;19915;-75
2022/04/05 04:13:58;;;;;;;;;;;;;;;;;;5136425;27;19919;-76
2022/04/05 04:16:24;;;;;;;;;;;;;;;;;;5136378;27;20014;-74
2022/04/05 04:18:49;;;;;;;;;;;;;;;;;;5134889;27;19997;-74
2022/04/05 04:21:14;;;;;;;;;;;;;;;;;;5136480;27;19921;-75
2022/04/05 04:23:40;;;;;;;;;;;;;;;;;;5135612;27;19920;-75
2022/04/05 04:26:05;;;;;;;;;;;;;;;;;;5131530;27;20723;-75
2022/04/05 04:28:31;;;;;;;;;;;;;;;;;;5135387;27;20295;-76
2022/04/05 04:30:56;;;;;;;;;;;;;;;;;;5126144;27;19966;-75
2022/04/05 04:33:22;;;;;;;;;;;;;;;;;;5131328;27;19915;-75
2022/04/05 04:35:47;;;;;;;;;;;;;;;;;;5136028;27;19916;-75
2022/04/05 04:38:15;;;;;;;;;;;;;;;;;;5134953;27;20275;-77
2022/04/05 04:40:44;;;;;;;;;;;;;;;;;;5136011;27;19943;-75
2022/04/05 04:43:09;;;;;;;;;;;;;;;;;;5135783;27;20306;-75
2022/04/05 04:45:36;;;;;;;;;;;;;;;;;;5136213;27;19915;-75
2022/04/05 04:48:01;;;;;;;;;;;;;;;;;;5135820;27;19915;-76
2022/04/05 04:50:27;;;;;;;;;;;;;;;;;;5135626;27;19976;-75
2022/04/05 04:52:52;;;;;;;;;;;;;;;;;;5135659;27;19915;-75
2022/04/05 04:55:18;;;;;;;;;;;;;;;;;;5113232;27;19918;-75
2022/04/05 04:57:43;;;;;;;;;;;;;;;;;;5114091;28;19963;-75
2022/04/05 05:00:11;;;;;;;;;;;;;;;;;;5132164;27;19922;-75
2022/04/05 05:02:45;;;;;;;;;;;;;;;;;;5135236;27;20354;-78
2022/04/05 05:05:12;;;;;;;;;;;;;;;;;;5135331;27;19938;-75
2022/04/05 05:07:37;;;;;;;;;;;;;;;;;;5135138;27;19979;-76
2022/04/05 05:10:03;;;;;;;;;;;;;;;;;;5135422;27;20375;-81
2022/04/05 05:12:28;;;;;;;;;;;;;;;;;;5135158;27;19916;-77
2022/04/05 05:14:54;;;;;;;;;;;;;;;;;;5135064;27;19915;-75
2022/04/05 05:17:19;;;;;;;;;;;;;;;;;;5134241;27;19915;-79
2022/04/05 05:19:44;;;;;;;;;;;;;;;;;;5126537;27;19916;-75
2022/04/05 05:22:10;;;;;;;;;;;;;;;;;;5135017;27;19915;-76
2022/04/05 05:24:36;;;;;;;;;;;;;;;;;;5116649;27;19940;-76
2022/04/05 05:27:01;;;;;;;;;;;;;;;;;;5115171;27;19915;-76
2022/04/05 05:29:26;;;;;;;;;;;;;;;;;;5133555;27;20439;-76
2022/04/05 05:31:52;;;;;;;;;;;;;;;;;;5135326;27;20354;-81
2022/04/05 05:34:22;;;;;;;;;;;;;;;;;;5134838;27;20379;-78
2022/04/05 05:36:48;;;;;;;;;;;;;;;;;;5134936;27;19968;-82
2022/04/05 05:39:13;;;;;;;;;;;;;;;;;;5131617;27;19915;-76
2022/04/05 05:41:39;;;;;;;;;;;;;;;;;;5093846;28;19968;-77
2022/04/05 05:44:04;;;;;;;;;;;;;;;;;;5103428;27;19919;-75
2022/04/05 05:46:30;;;;;;;;;;;;;;;;;;5134642;27;20259;-79
2022/04/05 05:48:55;;;;;;;;;;;;;;;;;;5134638;27;19941;-76
2022/04/05 05:51:20;;;;;;;;;;;;;;;;;;5129310;28;19927;-76
2022/04/05 05:53:46;;;;;;;;;;;;;;;;;;5121366;28;20437;-76
2022/04/05 05:56:11;;;;;;;;;;;;;;;;;;5076485;28;19911;-76
2022/04/05 05:58:37;;;;;;;;;;;;;;;;;;5110186;28;19916;-76
2022/04/05 06:01:02;;;;;;;;;;;;;;;;;;5114478;28;19919;-76
2022/04/05 06:03:28;;;;;;;;;;;;;;;;;;5117469;28;20271;-76
2022/04/05 06:05:54;;;;;;;;;;;;;;;;;;5117049;28;19920;-76
2022/04/05 06:08:19;;;;;;;;;;;;;;;;;;5112041;28;19920;-78
2022/04/05 06:10:44;;;;;;;;;;;;;;;;;;5124674;28;19988;-76
2022/04/05 06:13:11;;;;;;;;;;;;;;;;;;5130972;28;19934;-77
2022/04/05 06:15:37;;;;;;;;;;;;;;;;;;5114840;28;19971;-76
2022/04/05 06:18:02;;;;;;;;;;;;;;;;;;5134504;28;20405;-77
2022/04/05 06:20:28;;;;;;;;;;;;;;;;;;5108602;28;20301;-77
2022/04/05 06:22:55;;;;;;;;;;;;;;;;;;5094110;28;20337;-76
2022/04/05 06:25:22;;;;;;;;;;;;;;;;;;5091398;28;19964;-78
2022/04/05 06:27:48;;;;;;;;;;;;;;;;;;5124042;28;19940;-77
2022/04/05 06:30:14;;;;;;;;;;;;;;;;;;5127436;28;20364;-79
2022/04/05 12:40:24;;;;;;;;;;;;;;;;;;5152377;27;19915;-77
2022/04/05 12:42:49;;;;;;;;;;;;;;;;;;5152657;27;20273;-76
2022/04/05 12:45:24;;;;;;;;;;;;;;;;;;5151668;27;19919;-86
2022/04/05 12:47:50;;;;;;;;;;;;;;;;;;5152724;27;19916;-78
2022/04/05 12:50:16;;;;;;;;;;;;;;;;;;5156889;27;19916;-77
2022/04/05 12:52:42;;;;;;;;;;;;;;;;;;5157496;27;19919;-87
2022/04/05 12:55:18;;;;;;;;;;;;;;;;;;5152713;27;19922;-84
2022/04/05 12:57:48;;;;;;;;;;;;;;;;;;5152181;27;19919;-79
2022/04/05 13:00:19;;;;;;;;;;;;;;;;;;5153191;27;19915;-80
2022/04/05 13:02:49;;;;;;;;;;;;;;;;;;5150747;27;21373;-79
2022/04/05 13:07:58;;;;;;;;;;;;;;;;;;5152496;27;19930;-77
2022/04/05 13:10:45;;;;;;;;;;;;;;;;;;5152304;27;19919;-77
2022/04/05 13:13:11;;;;;;;;;;;;;;;;;;5150259;27;19958;-78
2022/04/05 13:15:37;;;;;;;;;;;;;;;;;;5152345;27;20354;-77
2022/04/05 13:18:05;;;;;;;;;;;;;;;;;;5151828;27;19926;-78
2022/04/05 13:20:31;;;;;;;;;;;;;;;;;;5146478;27;20295;-78
2022/04/05 13:23:03;;;;;;;;;;;;;;;;;;5149734;27;19915;-77
2022/04/05 13:25:39;;;;;;;;;;;;;;;;;;5150970;27;19919;-79
2022/04/05 13:28:06;;;;;;;;;;;;;;;;;;5147943;27;19916;-76
2022/04/05 13:30:45;;;;;;;;;;;;;;;;;;5149603;27;20009;-76
2022/04/05 13:33:11;;;;;;;;;;;;;;;;;;5149924;27;19919;-76
2022/04/05 13:35:37;;;;;;;;;;;;;;;;;;5147137;27;19919;-82
2022/04/05 13:38:02;;;;;;;;;;;;;;;;;;5139802;27;19922;-76
2022/04/05 13:40:28;;;;;;;;;;;;;;;;;;5126323;27;20298;-76
2022/04/05 13:42:54;;;;;;;;;;;;;;;;;;5123832;27;20009;-75
2022/04/05 13:45:22;;;;;;;;;;;;;;;;;;5137557;27;20007;-76
2022/04/05 13:47:48;;;;;;;;;;;;;;;;;;5140685;27;19927;-78
2022/04/05 13:50:14;;;;;;;;;;;;;;;;;;5138878;27;20281;-74
2022/04/05 13:52:39;;;;;;;;;;;;;;;;;;5138770;27;20319;-75
2022/04/05 13:55:06;;;;;;;;;;;;;;;;;;5121794;27;19916;-77
2022/04/05 13:57:32;;;;;;;;;;;;;;;;;;5130593;27;19950;-76
2022/04/05 13:59:57;;;;;;;;;;;;;;;;;;5138379;27;19970;-75
2022/04/05 14:02:23;;;;;;;;;;;;;;;;;;5136466;27;19964;-75
2022/04/05 14:04:48;;;;;;;;;;;;;;;;;;5137576;27;19926;-75
2022/04/05 14:07:14;;;;;;;;;;;;;;;;;;5137986;27;19919;-77
2022/04/05 14:09:40;;;;;;;;;;;;;;;;;;5138133;27;19915;-78
2022/04/05 14:12:09;;;;;;;;;;;;;;;;;;5136237;27;19916;-77
2022/04/05 14:14:34;;;;;;;;;;;;;;;;;;5140427;27;19922;-76
2022/04/05 14:17:00;;;;;;;;;;;;;;;;;;5140638;27;19916;-77
2022/04/05 14:19:26;;;;;;;;;;;;;;;;;;5141341;27;19974;-76
2022/04/05 14:21:52;;;;;;;;;;;;;;;;;;5139093;27;19916;-80
2022/04/05 14:24:18;;;;;;;;;;;;;;;;;;5137697;27;20377;-76
2022/04/05 14:26:44;;;;;;;;;;;;;;;;;;5136985;27;20445;-78
2022/04/05 14:29:09;;;;;;;;;;;;;;;;;;5136954;27;19969;-79
2022/04/05 14:31:36;;;;;;;;;;;;;;;;;;5135287;27;19920;-77
2022/04/05 14:34:02;;;;;;;;;;;;;;;;;;5134494;27;19927;-81
2022/04/05 14:36:27;;;;;;;;;;;;;;;;;;5128962;27;19915;-77
2022/04/05 14:38:53;;;;;;;;;;;;;;;;;;5116423;28;19920;-81
2022/04/05 14:41:20;;;;;;;;;;;;;;;;;;5116299;28;19915;-78
2022/04/05 14:43:48;;;;;;;;;;;;;;;;;;5129748;27;19915;-79
2022/04/05 14:46:14;;;;;;;;;;;;;;;;;;5136989;27;19954;-79
2022/04/05 14:48:39;;;;;;;;;;;;;;;;;;5136187;27;19966;-78
2022/04/05 14:51:05;;;;;;;;;;;;;;;;;;5134350;27;19927;-80
2022/04/05 14:53:30;;;;;;;;;;;;;;;;;;5137500;27;19922;-81
2022/04/05 14:55:56;;;;;;;;;;;;;;;;;;5136615;27;19983;-80
2022/04/05 14:58:22;;;;;;;;;;;;;;;;;;5136156;27;19919;-88
2022/04/05 15:00:47;;;;;;;;;;;;;;;;;;5136027;27;19927;-78
2022/04/05 15:03:13;;;;;;;;;;;;;;;;;;5136216;27;19919;-77
2022/04/05 15:05:38;;;;;;;;;;;;;;;;;;5136827;27;20286;-86
2022/04/05 15:08:04;;;;;;;;;;;;;;;;;;5135999;27;20021;-78
2022/04/05 15:10:31;;;;;;;;;;;;;;;;;;5135559;27;20032;-77
2022/04/05 15:12:56;;;;;;;;;;;;;;;;;;5135720;27;19922;-77
2022/04/05 15:15:22;;;;;;;;;;;;;;;;;;5135931;27;20378;-75
2022/04/05 15:17:47;;;;;;;;;;;;;;;;;;5135753;27;19942;-77
2022/04/05 15:20:13;;;;;;;;;;;;;;;;;;5134948;27;19915;-77
2022/04/05 15:22:38;;;;;;;;;;;;;;;;;;5132061;27;19927;-75
2022/04/05 15:25:04;;;;;;;;;;;;;;;;;;5135136;27;19922;-74
2022/04/05 15:27:30;;;;;;;;;;;;;;;;;;5135010;27;19955;-79
2022/04/05 15:29:55;;;;;;;;;;;;;;;;;;5133634;27;19996;-77
2022/04/05 15:32:21;;;;;;;;;;;;;;;;;;5130904;27;19959;-77
2022/04/05 15:34:46;;;;;;;;;;;;;;;;;;5134204;27;20270;-75
2022/04/05 15:37:12;;;;;;;;;;;;;;;;;;5134968;27;19926;-78
2022/04/05 15:39:38;;;;;;;;;;;;;;;;;;5134142;27;19927;-77
2022/04/05 15:42:04;;;;;;;;;;;;;;;;;;5135356;27;19960;-78
2022/04/05 15:44:31;;;;;;;;;;;;;;;;;;5134280;27;19915;-78
2022/04/05 15:46:56;;;;;;;;;;;;;;;;;;5134174;27;19961;-77
2022/04/05 15:49:21;;;;;;;;;;;;;;;;;;5133980;27;20006;-77
2022/04/05 15:51:47;;;;;;;;;;;;;;;;;;5133983;27;20350;-78
2022/04/05 15:54:13;;;;;;;;;;;;;;;;;;5133942;27;19923;-75
2022/04/05 15:56:39;;;;;;;;;;;;;;;;;;5134216;27;20013;-78
2022/04/05 15:59:05;;;;;;;;;;;;;;;;;;5133890;27;20010;-76
2022/04/05 16:01:30;;;;;;;;;;;;;;;;;;5136338;27;19920;-76
2022/04/05 16:03:56;;;;;;;;;;;;;;;;;;5135537;27;19915;-76
2022/04/05 16:06:22;;;;;;;;;;;;;;;;;;5135200;27;19926;-78
2022/04/05 16:08:49;;;;;;;;;;;;;;;;;;5135159;27;19985;-77
2022/04/05 16:11:14;;;;;;;;;;;;;;;;;;5133421;27;19942;-77
2022/04/05 16:13:40;;;;;;;;;;;;;;;;;;5134843;27;20366;-78
2022/04/05 16:16:07;;;;;;;;;;;;;;;;;;5134993;27;19915;-76
2022/04/05 16:18:33;;;;;;;;;;;;;;;;;;5132497;27;20331;-80
2022/04/05 16:20:59;;;;;;;;;;;;;;;;;;5133422;27;19923;-75
2022/04/05 16:23:24;;;;;;;;;;;;;;;;;;5133879;27;20392;-77
2022/04/05 16:25:50;;;;;;;;;;;;;;;;;;5136178;27;19919;-74
2022/04/05 16:28:15;;;;;;;;;;;;;;;;;;5137060;27;20292;-80
2022/04/05 16:30:40;;;;;;;;;;;;;;;;;;5131205;28;19919;-81
2022/04/05 16:33:08;;;;;;;;;;;;;;;;;;5132295;27;19923;-84
2022/04/05 16:35:34;;;;;;;;;;;;;;;;;;5130731;27;19924;-81
2022/04/05 16:37:59;;;;;;;;;;;;;;;;;;5133210;27;19919;-83
2022/04/05 16:40:25;;;;;;;;;;;;;;;;;;5133856;27;19915;-78
2022/04/05 16:42:53;;;;;;;;;;;;;;;;;;5133532;27;20010;-78
2022/04/05 16:45:20;;;;;;;;;;;;;;;;;;5133602;27;20454;-79
2022/04/05 16:47:45;;;;;;;;;;;;;;;;;;5133884;27;19994;-80
2022/04/05 16:50:12;;;;;;;;;;;;;;;;;;5133772;28;20014;-79
2022/04/05 16:52:39;;;;;;;;;;;;;;;;;;5133691;28;19927;-79
2022/04/05 16:55:05;;;;;;;;;;;;;;;;;;5134289;27;19915;-77
2022/04/05 16:57:31;;;;;;;;;;;;;;;;;;5133683;27;20010;-79
2022/04/05 16:59:56;;;;;;;;;;;;;;;;;;5135924;27;20323;-76
2022/04/05 17:02:22;;;;;;;;;;;;;;;;;;5135750;28;19919;-79
2022/04/05 17:04:47;;;;;;;;;;;;;;;;;;5134208;28;19923;-78
2022/04/05 17:07:13;;;;;;;;;;;;;;;;;;5128388;27;19942;-87
2022/04/05 17:09:41;;;;;;;;;;;;;;;;;;5132467;28;19920;-80
2022/04/05 17:12:08;;;;;;;;;;;;;;;;;;5123350;28;19949;-80
2022/04/05 17:14:33;;;;;;;;;;;;;;;;;;5126765;27;19973;-83
2022/04/05 17:16:59;;;;;;;;;;;;;;;;;;5134607;27;20393;-77
2022/04/05 17:19:24;;;;;;;;;;;;;;;;;;5138444;27;19938;-78
2022/04/05 17:21:50;;;;;;;;;;;;;;;;;;5138534;27;19915;-78
2022/04/05 17:24:16;;;;;;;;;;;;;;;;;;5138358;27;19916;-81
2022/04/05 17:26:41;;;;;;;;;;;;;;;;;;5138226;27;20376;-79
2022/04/05 17:29:07;;;;;;;;;;;;;;;;;;5138219;27;19915;-82
2022/04/05 17:31:33;;;;;;;;;;;;;;;;;;5138163;27;19951;-82
2022/04/05 17:33:58;;;;;;;;;;;;;;;;;;5138195;27;20334;-78
2022/04/05 17:36:24;;;;;;;;;;;;;;;;;;5136833;27;19923;-78
2022/04/05 17:38:50;;;;;;;;;;;;;;;;;;5137848;27;19998;-77
2022/04/05 17:41:16;;;;;;;;;;;;;;;;;;5137951;27;19940;-76
2022/04/05 17:43:42;;;;;;;;;;;;;;;;;;5137978;27;20010;-80
2022/04/05 17:46:07;;;;;;;;;;;;;;;;;;5136614;27;20362;-80
2022/04/05 17:48:33;;;;;;;;;;;;;;;;;;5137862;27;20268;-80
2022/04/05 17:50:59;;;;;;;;;;;;;;;;;;5137635;27;20011;-77
2022/04/05 17:53:25;;;;;;;;;;;;;;;;;;5135926;27;19938;-77
2022/04/05 17:55:50;;;;;;;;;;;;;;;;;;5127815;27;19916;-78
2022/04/05 17:58:16;;;;;;;;;;;;;;;;;;5117059;28;19920;-78
2022/04/05 18:00:41;;;;;;;;;;;;;;;;;;5117231;28;19916;-78
2022/04/05 18:03:07;;;;;;;;;;;;;;;;;;5122124;27;19951;-79
2022/04/05 18:05:32;;;;;;;;;;;;;;;;;;5137577;27;19919;-78
2022/04/05 18:07:57;;;;;;;;;;;;;;;;;;5137719;27;20272;-88
2022/04/05 18:10:24;;;;;;;;;;;;;;;;;;5137926;27;19915;-78
2022/04/05 18:12:58;;;;;;;;;;;;;;;;;;5137622;27;20374;-77
2022/04/05 18:15:24;;;;;;;;;;;;;;;;;;5130236;27;19950;-78
2022/04/05 18:17:49;;;;;;;;;;;;;;;;;;5122191;27;19920;-80
2022/04/05 18:20:16;;;;;;;;;;;;;;;;;;5116314;28;19939;-80
2022/04/05 18:22:42;;;;;;;;;;;;;;;;;;5115798;28;19920;-79
2022/04/05 18:25:09;;;;;;;;;;;;;;;;;;5115620;28;20064;-76
2022/04/05 18:27:35;;;;;;;;;;;;;;;;;;5115441;28;19915;-81
2022/04/05 18:30:00;;;;;;;;;;;;;;;;;;5122120;27;20293;-77
2022/04/05 18:32:26;;;;;;;;;;;;;;;;;;5115742;28;20275;-79
2022/04/05 18:34:51;;;;;;;;;;;;;;;;;;5115428;28;19916;-77
2022/04/05 18:37:18;;;;;;;;;;;;;;;;;;5124165;27;19976;-79
2022/04/05 18:39:45;;;;;;;;;;;;;;;;;;5137535;27;20003;-78
2022/04/05 18:42:11;;;;;;;;;;;;;;;;;;5135953;27;19919;-79
2022/04/05 18:44:39;;;;;;;;;;;;;;;;;;5138886;27;19972;-77
2022/04/05 18:47:05;;;;;;;;;;;;;;;;;;5139480;27;19922;-79
2022/04/05 18:49:30;;;;;;;;;;;;;;;;;;5136730;27;19919;-79
2022/04/05 18:51:56;;;;;;;;;;;;;;;;;;5135550;27;19984;-77
2022/04/05 18:54:22;;;;;;;;;;;;;;;;;;5136015;27;19919;-81
2022/04/05 18:56:47;;;;;;;;;;;;;;;;;;5134799;27;20370;-79
2022/04/05 18:59:14;;;;;;;;;;;;;;;;;;5136107;27;20048;-76
2022/04/05 19:01:40;;;;;;;;;;;;;;;;;;5134890;27;20289;-79
2022/04/05 19:04:05;;;;;;;;;;;;;;;;;;5126969;27;19923;-80
2022/04/05 19:06:31;;;;;;;;;;;;;;;;;;5115173;28;19919;-79
2022/04/05 19:09:00;;;;;;;;;;;;;;;;;;5115253;28;19939;-79
2022/04/05 19:11:26;;;;;;;;;;;;;;;;;;5115154;28;19916;-80
2022/04/05 19:13:54;;;;;;;;;;;;;;;;;;5127392;27;20002;-79
2022/04/05 19:16:20;;;;;;;;;;;;;;;;;;5129774;27;20010;-79
2022/04/05 19:18:45;;;;;;;;;;;;;;;;;;5133656;27;20006;-78
2022/04/05 19:21:11;;;;;;;;;;;;;;;;;;5120843;27;19920;-78
2022/04/05 19:23:39;;;;;;;;;;;;;;;;;;5124888;27;19920;-77
2022/04/05 19:26:05;;;;;;;;;;;;;;;;;;5127881;27;20347;-78
2022/04/05 19:28:31;;;;;;;;;;;;;;;;;;5132812;27;19919;-80
2022/04/05 19:31:03;;;;;;;;;;;;;;;;;;5126475;27;19934;-79
2022/04/05 19:33:29;;;;;;;;;;;;;;;;;;5124937;27;19915;-80
2022/04/05 19:35:54;;;;;;;;;;;;;;;;;;5126045;27;19945;-79
2022/04/05 19:38:20;;;;;;;;;;;;;;;;;;5131519;27;19972;-80
2022/04/05 19:40:46;;;;;;;;;;;;;;;;;;5131378;27;19921;-81
2022/04/05 19:43:11;;;;;;;;;;;;;;;;;;5130438;27;20419;-80
2022/04/05 19:45:36;;;;;;;;;;;;;;;;;;5124277;27;19926;-79
2022/04/05 19:48:02;;;;;;;;;;;;;;;;;;5123308;27;19982;-82
2022/04/05 19:50:27;;;;;;;;;;;;;;;;;;5125201;27;19927;-78
2022/04/05 19:52:53;;;;;;;;;;;;;;;;;;5132851;27;19923;-81
2022/04/05 19:55:24;;;;;;;;;;;;;;;;;;5125440;27;19926;-79
2022/04/05 19:57:50;;;;;;;;;;;;;;;;;;5134646;27;20000;-81
2022/04/05 20:00:16;;;;;;;;;;;;;;;;;;5133722;27;20338;-81
2022/04/05 20:02:41;;;;;;;;;;;;;;;;;;5108139;27;19919;-81
2022/04/05 20:05:08;;;;;;;;;;;;;;;;;;5113405;27;20374;-80
2022/04/05 20:07:34;;;;;;;;;;;;;;;;;;5110578;27;20054;-81
2022/04/05 20:10:04;;;;;;;;;;;;;;;;;;5121319;27;20408;-80
2022/04/05 20:12:30;;;;;;;;;;;;;;;;;;5111919;27;19999;-79
2022/04/05 20:14:55;;;;;;;;;;;;;;;;;;5104938;27;20061;-78
2022/04/05 20:20:06;;;;;;;;;;;;;;;;;;5105473;28;19954;-81
2022/04/05 20:22:32;;;;;;;;;;;;;;;;;;5107910;28;20128;-79
2022/04/05 20:24:58;;;;;;;;;;;;;;;;;;5111452;27;20859;-80
2022/04/05 20:27:23;;;;;;;;;;;;;;;;;;5109710;28;19965;-80
2022/04/05 20:29:49;;;;;;;;;;;;;;;;;;5107689;28;19968;-79
2022/04/05 20:32:14;;;;;;;;;;;;;;;;;;5106582;27;19926;-79
2022/04/05 20:34:40;;;;;;;;;;;;;;;;;;5106813;28;20453;-79
2022/04/05 20:37:05;;;;;;;;;;;;;;;;;;5110372;28;19916;-82
2022/04/05 20:39:31;;;;;;;;;;;;;;;;;;5107499;28;20374;-79
2022/04/05 20:41:57;;;;;;;;;;;;;;;;;;5110850;28;20278;-79
2022/04/05 20:44:23;;;;;;;;;;;;;;;;;;5105844;27;19973;-79
2022/04/05 20:46:48;;;;;;;;;;;;;;;;;;5105657;28;20450;-78
2022/04/05 20:49:14;;;;;;;;;;;;;;;;;;5108466;28;19935;-79
2022/04/05 20:51:44;;;;;;;;;;;;;;;;;;5112931;27;19916;-77
2022/04/05 20:54:09;;;;;;;;;;;;;;;;;;5112209;27;19920;-77
2022/04/05 20:56:35;;;;;;;;;;;;;;;;;;5112388;27;19944;-78
2022/04/05 20:59:00;;;;;;;;;;;;;;;;;;5110961;27;19920;-80
2022/04/05 21:01:25;;;;;;;;;;;;;;;;;;5114908;27;20373;-79
2022/04/05 21:03:51;;;;;;;;;;;;;;;;;;5111962;27;19923;-78
2022/04/05 21:06:16;;;;;;;;;;;;;;;;;;5115395;27;19919;-77
2022/04/05 21:08:42;;;;;;;;;;;;;;;;;;5114498;27;19923;-79
2022/04/05 21:11:10;;;;;;;;;;;;;;;;;;5113696;27;20367;-79
2022/04/05 21:13:37;;;;;;;;;;;;;;;;;;5113597;27;20006;-84
2022/04/05 21:16:02;;;;;;;;;;;;;;;;;;5115121;27;20299;-81
2022/04/05 21:18:28;;;;;;;;;;;;;;;;;;5111148;27;20357;-87
2022/04/05 21:20:53;;;;;;;;;;;;;;;;;;5110988;27;20003;-80
2022/04/05 21:23:19;;;;;;;;;;;;;;;;;;5112288;27;19924;-80
2022/04/05 21:25:45;;;;;;;;;;;;;;;;;;5112089;27;20010;-80
2022/04/05 21:28:10;;;;;;;;;;;;;;;;;;5111194;27;19924;-79
2022/04/05 21:30:36;;;;;;;;;;;;;;;;;;5111398;27;19924;-80
2022/04/05 21:33:01;;;;;;;;;;;;;;;;;;5112629;27;19930;-80
2022/04/05 21:35:27;;;;;;;;;;;;;;;;;;5110474;27;20434;-81
2022/04/05 21:37:52;;;;;;;;;;;;;;;;;;5112882;27;19928;-80
2022/04/05 21:40:18;;;;;;;;;;;;;;;;;;5112084;27;19919;-80
2022/04/05 21:42:43;;;;;;;;;;;;;;;;;;5111810;27;19979;-80
2022/04/05 21:45:09;;;;;;;;;;;;;;;;;;5112094;27;20351;-81
2022/04/05 21:47:35;;;;;;;;;;;;;;;;;;5121476;27;19924;-79
2022/04/05 21:50:01;;;;;;;;;;;;;;;;;;5117107;27;20428;-79
2022/04/05 21:52:27;;;;;;;;;;;;;;;;;;5117105;27;19923;-78
2022/04/05 21:54:53;;;;;;;;;;;;;;;;;;5117906;27;19927;-79
2022/04/05 21:57:18;;;;;;;;;;;;;;;;;;5116697;27;20465;-78
2022/04/05 21:59:43;;;;;;;;;;;;;;;;;;5113439;27;19935;-81
2022/04/05 22:02:09;;;;;;;;;;;;;;;;;;5119138;27;20395;-80
2022/04/05 22:04:36;;;;;;;;;;;;;;;;;;5113388;27;20495;-79
2022/04/05 22:07:02;;;;;;;;;;;;;;;;;;5114845;27;19930;-79
2022/04/05 22:09:28;;;;;;;;;;;;;;;;;;5110507;27;19920;-79
2022/04/05 22:11:53;;;;;;;;;;;;;;;;;;5147078;27;19927;-78
2022/04/05 22:14:19;;;;;;;;;;;;;;;;;;5132853;27;19915;-78
2022/04/05 22:16:44;;;;;;;;;;;;;;;;;;5137226;27;20362;-78
2022/04/05 22:19:10;;;;;;;;;;;;;;;;;;5137120;27;19912;-76
2022/04/05 22:21:36;;;;;;;;;;;;;;;;;;5137326;27;19945;-76
2022/04/05 22:24:04;;;;;;;;;;;;;;;;;;5137055;27;19915;-78
2022/04/05 22:26:31;;;;;;;;;;;;;;;;;;5127852;27;19949;-82
2022/04/05 22:28:57;;;;;;;;;;;;;;;;;;5120090;27;19919;-78
2022/04/05 22:31:23;;;;;;;;;;;;;;;;;;5123730;27;19924;-77
2022/04/05 22:33:49;;;;;;;;;;;;;;;;;;5126753;27;20363;-76
2022/04/05 22:36:14;;;;;;;;;;;;;;;;;;5124645;27;19926;-84
2022/04/05 22:38:40;;;;;;;;;;;;;;;;;;5135579;27;19976;-76
2022/04/05 22:41:06;;;;;;;;;;;;;;;;;;5131172;27;19932;-78
2022/04/05 22:43:31;;;;;;;;;;;;;;;;;;5128146;27;19919;-79
2022/04/05 22:45:57;;;;;;;;;;;;;;;;;;5128038;27;20259;-79
2022/04/05 22:48:22;;;;;;;;;;;;;;;;;;5135048;27;19923;-76
2022/04/05 22:50:48;;;;;;;;;;;;;;;;;;5133722;27;20010;-81